Portada
METAR-TAF:

METAR-TAF

Aeroports :

Middle Peninsula Regional Airport

West Point, Virgínia, Estats Units d'Amèrica

latitud: 37-31-16N, longitud: 076-45-52W, altitud: 7 m

Observació

L'informe es va fer fa 20 minuts, a les 16:55 UTC
Vent calma
Temperatura 6°C
Humitat 70%
Pressió 1001 hPa
Visibilitat: 16.1 km
Núvols disperses a una alçada de 8000 ft

METAR: KFYJ 161655Z AUTO 00000KT 10SM SCT080 06/01 A2956 RMK AO1 T00560006

Hora: 12:15 (17:15 UTC)


TAF: manca

Observacions i pronòstics meteorològics de més de 4000 aeroports (METAR i TAF).

Les estacions disponibles són els punts grocs i vermells al mapa.

Posi el ratolí al punt desitjat per veure el nom de l'estació.

Feu clic per veure les observacions i els pronòstics meteorològics.

Per canviar el mapa: feu clic els botons verds amb una creu de color negre per apropar; al botó verd amb un guió per allunyar la imatge; o en les fletxes verdes per a mapes adjacents.


METAR-TAF: